Time;durP1;ratioP1;P1;durP2;ratioP2;P2;SDS_P1;SDS_P2;PMS_P1;PMS_P2;Temp;Humidity;BMP_temperature;BMP_pressure;BME280_temperature;BME280_humidity;BME280_pressure;Samples;Min_cycle;Max_cycle;Signal;HPM_P1;HPM_P2
2021/08/19 00:29:25;;;;;;;1.17;0.80;;;19.20;99.90;;;;;;4860673;29;20454;-90
2021/08/19 01:14:55;;;;;;;1.33;1.17;;;18.90;99.90;;;;;;4879723;29;20535;-90
2021/08/19 01:25:13;;;;;;;;;;;;;;;;;;;;;
2021/08/19 01:53:17;;;;;;;1.43;1.33;;;18.80;99.90;;;;;;4824760;29;20506;-91
2021/08/19 01:56:42;;;;;;;1.53;1.23;;;18.80;99.90;;;;;;4788827;29;20565;-90
2021/08/19 04:28:25;;;;;;;;;;;;;;;;;;;;;
2021/08/19 04:31:39;;;;;;;3.60;2.63;;;18.40;99.90;;;;;;4852394;29;20464;-90
2021/08/19 04:37:49;;;;;;;3.33;3.00;;;18.40;99.90;;;;;;4803592;29;20452;-90
2021/08/19 04:40:17;;;;;;;5.87;3.50;;;18.40;99.90;;;;;;4919321;29;20471;-90
2021/08/19 04:42:43;;;;;;;7.87;3.23;;;18.40;99.90;;;;;;4952946;29;20485;-89
2021/08/19 04:45:11;;;;;;;7.00;3.70;;;18.40;99.90;;;;;;4976713;23;20502;-91
2021/08/19 04:47:38;;;;;;;3.70;3.37;;;18.40;99.90;;;;;;4961677;29;20535;-91
2021/08/19 04:50:06;;;;;;;3.57;3.10;;;18.40;99.90;;;;;;4959029;29;20456;-91
2021/08/19 04:56:07;;;;;;;6.40;3.10;;;18.30;99.90;;;;;;4927640;29;20513;-91
2021/08/19 04:58:52;;;;;;;7.20;3.53;;;18.30;99.90;;;;;;4930379;29;20465;-92
2021/08/19 05:04:56;;;;;;;3.03;2.80;;;18.40;99.90;;;;;;4861144;29;20533;-92
2021/08/19 05:07:55;;;;;;;9.00;3.90;;;18.40;99.90;;;;;;4920340;29;20469;-92
2021/08/19 05:11:19;;;;;;;6.27;3.20;;;18.40;99.90;;;;;;4919825;29;20465;-92
2021/08/19 05:19:51;;;;;;;3.40;2.57;;;18.40;99.90;;;;;;4919202;29;20978;-92
2021/08/19 05:22:20;;;;;;;6.33;2.80;;;18.40;99.90;;;;;;4920824;29;20546;-92
2021/08/19 05:24:47;;;;;;;2.80;2.53;;;18.50;99.90;;;;;;4920508;29;20552;-79
2021/08/19 05:27:15;;;;;;;3.20;2.90;;;18.50;99.90;;;;;;4922356;29;20534;-80
2021/08/19 05:29:41;;;;;;;5.20;2.73;;;18.50;99.90;;;;;;4922872;29;20524;-80
2021/08/19 05:32:08;;;;;;;4.40;4.00;;;18.50;99.90;;;;;;4921947;29;20456;-79
2021/08/19 05:34:35;;;;;;;9.30;3.90;;;18.50;99.90;;;;;;4922940;29;20487;-80
2021/08/19 05:37:01;;;;;;;6.60;3.77;;;18.40;99.90;;;;;;4922081;29;20465;-80
2021/08/19 05:39:28;;;;;;;7.80;3.90;;;18.60;99.90;;;;;;4921128;29;20462;-80
2021/08/19 05:41:55;;;;;;;3.47;2.67;;;18.60;99.90;;;;;;4921863;29;20451;-80
2021/08/19 05:44:23;;;;;;;4.03;2.97;;;18.70;99.90;;;;;;4936462;29;20450;-80
2021/08/19 05:46:50;;;;;;;4.67;3.20;;;18.80;99.90;;;;;;4940971;29;20454;-80
2021/08/19 05:49:16;;;;;;;4.40;3.13;;;18.80;99.90;;;;;;4940896;29;20462;-79
2021/08/19 05:51:43;;;;;;;3.50;2.67;;;18.90;99.90;;;;;;4929864;29;20460;-79
2021/08/19 05:54:10;;;;;;;7.47;2.93;;;18.90;99.90;;;;;;4924104;29;20497;-79
2021/08/19 05:56:36;;;;;;;4.03;3.30;;;19.00;99.90;;;;;;4923638;29;20449;-80
2021/08/19 05:59:03;;;;;;;3.50;3.20;;;19.00;99.90;;;;;;4921229;29;20956;-80
2021/08/19 06:01:31;;;;;;;2.93;2.63;;;19.00;99.90;;;;;;4921984;29;20467;-80
2021/08/19 06:03:58;;;;;;;2.80;2.60;;;19.10;99.90;;;;;;4921311;29;20456;-79
2021/08/19 06:06:24;;;;;;;5.80;2.93;;;19.10;99.90;;;;;;4920625;29;20467;-79
2021/08/19 06:08:51;;;;;;;3.90;2.57;;;19.10;99.90;;;;;;4920409;29;20457;-80
2021/08/19 06:11:18;;;;;;;3.33;2.70;;;19.20;99.90;;;;;;4922042;29;20460;-82
2021/08/19 06:13:44;;;;;;;4.57;2.63;;;19.30;99.90;;;;;;4921171;29;20484;-82
2021/08/19 06:16:11;;;;;;;2.90;2.70;;;19.20;99.90;;;;;;4921056;29;20482;-81
2021/08/19 06:18:39;;;;;;;2.80;2.43;;;19.30;99.90;;;;;;4921062;29;20445;-82
2021/08/19 06:21:06;;;;;;;2.80;2.60;;;19.40;99.90;;;;;;4923313;29;20824;-82
2021/08/19 06:23:32;;;;;;;4.60;2.17;;;19.40;99.90;;;;;;4926080;29;20449;-81
2021/08/19 06:25:59;;;;;;;5.07;2.50;;;19.50;99.90;;;;;;4923136;29;20477;-80
2021/08/19 06:28:26;;;;;;;2.97;2.30;;;19.60;99.90;;;;;;4928474;29;20460;-82
2021/08/19 06:30:53;;;;;;;2.33;2.10;;;19.60;99.90;;;;;;4930019;29;20441;-82
2021/08/19 06:33:20;;;;;;;2.87;2.20;;;19.70;99.90;;;;;;4924340;29;20497;-82
2021/08/19 06:35:48;;;;;;;2.57;2.33;;;19.90;99.90;;;;;;4924157;29;20473;-82
2021/08/19 06:38:15;;;;;;;1.83;1.73;;;19.90;99.90;;;;;;4934705;29;20454;-82
2021/08/19 06:40:43;;;;;;;2.60;2.30;;;20.00;99.90;;;;;;4925698;29;20454;-82
2021/08/19 06:43:09;;;;;;;3.10;2.37;;;20.10;99.90;;;;;;4922217;29;20941;-82
2021/08/19 06:45:36;;;;;;;3.23;2.20;;;20.20;99.90;;;;;;4921961;29;20489;-82
2021/08/19 06:48:03;;;;;;;2.17;2.07;;;20.30;99.90;;;;;;4921102;29;20458;-82
2021/08/19 06:50:30;;;;;;;1.53;1.43;;;20.50;99.90;;;;;;4921026;29;20457;-82
2021/08/19 06:52:58;;;;;;;2.50;2.13;;;20.60;99.90;;;;;;4922838;29;20482;-82
2021/08/19 06:55:25;;;;;;;2.30;2.10;;;20.80;99.90;;;;;;4939999;29;20477;-82
2021/08/19 06:57:51;;;;;;;2.53;2.33;;;21.00;99.90;;;;;;4939283;29;20458;-82
2021/08/19 07:00:19;;;;;;;3.80;1.83;;;21.10;99.90;;;;;;4939045;29;20449;-82
2021/08/19 07:02:45;;;;;;;2.90;2.50;;;21.00;99.90;;;;;;4937383;29;20832;-82
2021/08/19 07:05:12;;;;;;;3.30;2.00;;;21.10;99.90;;;;;;4939415;29;20553;-82
2021/08/19 07:07:39;;;;;;;2.10;1.90;;;21.30;99.90;;;;;;4939160;29;20457;-82
2021/08/19 07:10:09;;;;;;;2.20;2.00;;;21.40;99.90;;;;;;4938574;29;20939;-82
2021/08/19 07:12:36;;;;;;;13.17;2.47;;;21.50;99.90;;;;;;4937843;29;20527;-82
2021/08/19 07:15:02;;;;;;;1.87;1.77;;;21.70;99.90;;;;;;4938577;29;20478;-83
2021/08/19 07:17:29;;;;;;;2.90;1.70;;;21.90;99.90;;;;;;4938522;29;20455;-82
2021/08/19 07:19:56;;;;;;;2.33;2.07;;;22.10;99.90;;;;;;4938844;29;20523;-82
2021/08/19 07:22:22;;;;;;;3.33;3.03;;;22.10;99.90;;;;;;4938345;29;20459;-82
2021/08/19 07:24:49;;;;;;;2.20;2.00;;;22.00;99.30;;;;;;4938841;29;20471;-82
2021/08/19 07:27:17;;;;;;;2.03;1.83;;;21.70;99.80;;;;;;4938070;29;20447;-83
2021/08/19 07:29:44;;;;;;;2.50;1.87;;;21.90;99.90;;;;;;4936953;29;20469;-82
2021/08/19 07:32:11;;;;;;;2.57;1.90;;;22.00;99.50;;;;;;4940792;29;20467;-82
2021/08/19 07:34:38;;;;;;;3.63;2.83;;;22.00;99.10;;;;;;4946771;29;20497;-82
2021/08/19 07:37:04;;;;;;;2.27;1.90;;;22.20;98.70;;;;;;4940355;29;20459;-82
2021/08/19 07:39:31;;;;;;;2.00;1.80;;;22.40;98.60;;;;;;4938256;29;20463;-80
2021/08/19 07:41:58;;;;;;;3.43;1.70;;;22.50;98.00;;;;;;4938113;29;20945;-83
2021/08/19 07:44:26;;;;;;;1.87;1.57;;;22.60;98.00;;;;;;4937876;29;20467;-80
2021/08/19 07:46:52;;;;;;;2.77;2.10;;;22.70;97.40;;;;;;4938052;29;20894;-80
2021/08/19 07:49:20;;;;;;;2.73;2.00;;;22.80;97.20;;;;;;4937040;29;20451;-80
2021/08/19 07:51:47;;;;;;;2.57;1.73;;;22.90;96.90;;;;;;4919094;29;20464;-80
2021/08/19 07:54:16;;;;;;;2.70;1.67;;;23.00;96.70;;;;;;4919152;29;20546;-80
2021/08/19 07:56:43;;;;;;;3.60;2.00;;;22.90;96.50;;;;;;4919808;29;20994;-80
2021/08/19 07:59:10;;;;;;;3.03;2.23;;;23.00;96.50;;;;;;4918635;29;20465;-80
2021/08/19 08:01:37;;;;;;;2.10;2.00;;;22.90;96.60;;;;;;4918856;29;20449;-81
2021/08/19 08:04:07;;;;;;;5.07;2.40;;;22.70;96.70;;;;;;4919247;29;20457;-81
2021/08/19 08:06:33;;;;;;;2.57;1.80;;;22.70;96.80;;;;;;4922692;29;20540;-81
2021/08/19 08:09:00;;;;;;;2.40;1.77;;;22.60;96.90;;;;;;4923006;29;20453;-81
2021/08/19 08:11:27;;;;;;;2.63;1.73;;;22.50;97.30;;;;;;4922697;29;20457;-80
2021/08/19 08:13:54;;;;;;;4.93;2.60;;;22.60;97.10;;;;;;4926238;29;20496;-81
2021/08/19 08:16:20;;;;;;;2.70;2.43;;;22.80;96.70;;;;;;4929712;29;20475;-80
2021/08/19 08:18:48;;;;;;;1.97;1.87;;;22.90;96.60;;;;;;4929895;29;20466;-80
2021/08/19 08:21:16;;;;;;;4.10;3.80;;;22.90;96.50;;;;;;4929067;29;20456;-81
2021/08/19 08:23:43;;;;;;;2.53;2.23;;;23.20;96.40;;;;;;4930259;29;20520;-80
2021/08/19 08:26:11;;;;;;;2.57;2.23;;;23.50;95.80;;;;;;4929242;29;20482;-80
2021/08/19 08:28:37;;;;;;;2.30;2.10;;;24.30;95.00;;;;;;4927889;29;20449;-80
2021/08/19 08:31:05;;;;;;;2.47;2.20;;;24.90;93.80;;;;;;4923964;29;20454;-81
2021/08/19 08:33:32;;;;;;;2.20;2.00;;;25.50;92.60;;;;;;4922572;29;20492;-81
2021/08/19 08:36:01;;;;;;;2.80;2.27;;;26.50;91.10;;;;;;4923010;29;20474;-81
2021/08/19 08:38:29;;;;;;;3.50;1.87;;;27.10;88.90;;;;;;4922080;29;20446;-81
2021/08/19 08:40:56;;;;;;;3.30;1.90;;;27.40;86.30;;;;;;4922758;29;20515;-81
2021/08/19 08:43:24;;;;;;;3.10;1.90;;;27.90;83.80;;;;;;4922730;29;20461;-81
2021/08/19 08:45:52;;;;;;;2.70;1.80;;;29.30;79.80;;;;;;4930975;29;20521;-82
2021/08/19 08:48:22;;;;;;;3.40;2.00;;;30.50;74.00;;;;;;4959629;29;20460;-83
2021/08/19 08:50:51;;;;;;;2.57;2.00;;;30.30;72.00;;;;;;4944247;29;20445;-80
2021/08/19 08:53:19;;;;;;;3.67;1.97;;;29.30;72.50;;;;;;4941646;29;20481;-81
2021/08/19 08:55:47;;;;;;;2.20;2.00;;;28.30;75.00;;;;;;4942430;29;20465;-81
2021/08/19 08:58:14;;;;;;;3.50;2.13;;;27.80;77.10;;;;;;4939964;29;20469;-81
2021/08/19 09:00:42;;;;;;;7.20;2.40;;;27.20;79.30;;;;;;4923626;29;20461;-81
2021/08/19 09:03:09;;;;;;;5.77;2.17;;;27.00;80.20;;;;;;4928066;29;20450;-80
2021/08/19 09:05:40;;;;;;;5.57;2.37;;;26.80;80.60;;;;;;4926614;29;20481;-81
2021/08/19 09:08:13;;;;;;;3.23;2.03;;;27.00;81.40;;;;;;4926700;29;20447;-80
2021/08/19 09:10:41;;;;;;;2.20;1.73;;;27.40;79.40;;;;;;4927542;29;20448;-81
2021/08/19 09:13:09;;;;;;;2.87;2.40;;;27.60;78.70;;;;;;4923595;29;20506;-81
2021/08/19 09:15:36;;;;;;;3.10;2.90;;;27.00;79.20;;;;;;4922059;29;20807;-80
2021/08/19 09:18:03;;;;;;;3.30;3.10;;;26.80;80.00;;;;;;4923946;29;20651;-80
2021/08/19 09:20:35;;;;;;;2.77;1.83;;;26.40;80.90;;;;;;4922913;29;20450;-80
2021/08/19 09:23:04;;;;;;;3.47;2.17;;;26.00;82.90;;;;;;4940764;29;20466;-81
2021/08/19 09:25:33;;;;;;;4.67;2.17;;;25.50;83.80;;;;;;4940404;29;20473;-81
2021/08/19 09:28:16;;;;;;;4.80;2.20;;;25.10;85.90;;;;;;4941326;29;20449;-81
2021/08/19 09:30:44;;;;;;;2.30;2.03;;;24.80;88.00;;;;;;4940692;29;20688;-81
2021/08/19 09:33:11;;;;;;;3.57;2.10;;;24.80;87.60;;;;;;4940914;29;20442;-81
2021/08/19 09:35:40;;;;;;;2.30;2.00;;;24.80;87.50;;;;;;4940018;29;20508;-81
2021/08/19 09:38:08;;;;;;;1.40;1.30;;;24.90;87.30;;;;;;4940584;29;20465;-81
2021/08/19 09:40:35;;;;;;;2.47;1.87;;;25.20;85.80;;;;;;4941585;29;20458;-81
2021/08/19 09:43:02;;;;;;;1.60;1.40;;;25.40;83.80;;;;;;4928841;29;20462;-81
2021/08/19 09:45:30;;;;;;;1.47;1.17;;;25.20;84.20;;;;;;4921853;29;20481;-81
2021/08/19 09:48:07;;;;;;;1.50;1.40;;;25.50;83.20;;;;;;4921343;29;20458;-81
2021/08/19 09:50:34;;;;;;;2.47;1.90;;;25.90;81.40;;;;;;4921782;29;20447;-81
2021/08/19 09:53:15;;;;;;;1.73;1.20;;;26.30;80.30;;;;;;4921710;29;20482;-81
2021/08/19 09:55:42;;;;;;;5.10;1.70;;;26.40;79.80;;;;;;4921439;29;20489;-81
2021/08/19 09:58:09;;;;;;;1.50;1.40;;;26.60;79.60;;;;;;4920604;29;20485;-81
2021/08/19 10:00:41;;;;;;;1.73;1.43;;;26.50;78.70;;;;;;4920160;29;20447;-81
2021/08/19 10:03:09;;;;;;;1.60;1.50;;;25.80;79.00;;;;;;4921643;29;20542;-81
2021/08/19 10:05:37;;;;;;;1.57;1.47;;;26.60;79.60;;;;;;4921406;29;20566;-81
2021/08/19 10:08:07;;;;;;;1.50;1.30;;;27.80;75.20;;;;;;4933760;29;20449;-82
2021/08/19 10:10:36;;;;;;;1.20;1.10;;;28.30;71.10;;;;;;4933189;29;20459;-81
2021/08/19 10:13:04;;;;;;;1.80;1.17;;;27.60;71.30;;;;;;4928404;29;20837;-83
2021/08/19 10:15:35;;;;;;;2.13;1.50;;;27.60;70.90;;;;;;4931086;29;20492;-81
2021/08/19 10:18:06;;;;;;;1.87;1.10;;;27.40;71.30;;;;;;4927003;29;21014;-82
2021/08/19 10:20:38;;;;;;;2.03;1.10;;;27.40;70.60;;;;;;4925544;29;20462;-82
2021/08/19 10:23:06;;;;;;;1.40;1.10;;;27.00;69.10;;;;;;4945014;29;20434;-82
2021/08/19 10:25:33;;;;;;;2.33;2.13;;;26.90;70.60;;;;;;4944587;29;20469;-81
2021/08/19 10:28:13;;;;;;;1.40;1.00;;;26.90;72.90;;;;;;4942444;29;20447;-81
2021/08/19 10:30:47;;;;;;;1.50;1.10;;;26.70;70.80;;;;;;4941311;29;20529;-82
2021/08/19 10:33:43;;;;;;;1.37;1.27;;;26.00;72.40;;;;;;4941500;29;20784;-82
2021/08/19 10:37:02;;;;;;;1.17;1.07;;;26.10;74.60;;;;;;4941751;29;20462;-82
2021/08/19 10:39:40;;;;;;;1.47;1.10;;;26.30;74.40;;;;;;4941480;29;20443;-82
2021/08/19 10:42:12;;;;;;;1.60;1.27;;;26.50;73.50;;;;;;4941213;29;20442;-82
2021/08/19 10:47:06;;;;;;;2.13;1.93;;;26.00;74.70;;;;;;4958985;29;20449;-82
2021/08/19 10:49:42;;;;;;;1.87;1.77;;;25.70;75.80;;;;;;4952390;29;20464;-82
2021/08/19 10:52:29;;;;;;;2.03;1.20;;;25.70;77.10;;;;;;4944999;29;20441;-83
2021/08/19 10:55:13;;;;;;;1.60;1.40;;;25.40;78.70;;;;;;4947344;28;20488;-83
2021/08/19 10:57:47;;;;;;;2.73;2.30;;;25.20;79.30;;;;;;4945243;29;20440;-85
2021/08/19 11:00:14;;;;;;;2.67;2.40;;;25.30;78.90;;;;;;4939774;29;20445;-83
2021/08/19 11:02:43;;;;;;;2.20;2.00;;;25.50;78.20;;;;;;4938132;29;20453;-83
2021/08/19 11:05:12;;;;;;;2.97;2.67;;;25.50;78.10;;;;;;4939020;29;20469;-83
2021/08/19 11:07:47;;;;;;;2.40;2.20;;;25.50;78.70;;;;;;4937902;29;20959;-83
2021/08/19 11:10:20;;;;;;;3.87;1.80;;;25.60;77.80;;;;;;4938514;29;20507;-83
2021/08/19 11:12:47;;;;;;;2.20;1.97;;;25.60;78.40;;;;;;4938896;29;20471;-83
2021/08/19 11:15:14;;;;;;;2.13;1.93;;;25.60;77.60;;;;;;4941314;29;21032;-83
2021/08/19 11:17:50;;;;;;;1.40;1.30;;;25.70;77.10;;;;;;4943323;29;20445;-84
2021/08/19 11:20:24;;;;;;;1.83;1.43;;;25.80;77.40;;;;;;4938398;29;20453;-84
2021/08/19 11:23:04;;;;;;;2.87;1.70;;;25.80;77.00;;;;;;4938151;29;20456;-84
2021/08/19 11:25:32;;;;;;;2.47;1.73;;;25.60;75.70;;;;;;4937748;29;20469;-84
2021/08/19 11:28:11;;;;;;;1.90;1.63;;;25.60;75.80;;;;;;4940093;29;20450;-81
2021/08/19 11:30:40;;;;;;;1.80;1.47;;;25.30;76.20;;;;;;4944757;29;20444;-81
2021/08/19 11:33:14;;;;;;;2.43;1.40;;;25.10;77.70;;;;;;4947664;29;20460;-80
2021/08/19 11:35:44;;;;;;;3.80;2.10;;;25.00;78.00;;;;;;4941946;29;20481;-82
2021/08/19 11:38:13;;;;;;;1.97;1.20;;;24.80;78.60;;;;;;4920358;29;20956;-82
2021/08/19 11:40:43;;;;;;;1.73;1.53;;;24.60;80.60;;;;;;4926946;29;20450;-81
2021/08/19 11:43:25;;;;;;;4.00;1.63;;;24.40;80.80;;;;;;4926128;29;20450;-81
2021/08/19 11:45:55;;;;;;;3.70;1.43;;;24.30;80.50;;;;;;4919356;29;20478;-83
2021/08/19 11:48:22;;;;;;;3.40;1.83;;;24.20;82.50;;;;;;4920165;29;20529;-82
2021/08/19 11:50:55;;;;;;;6.80;4.90;;;24.10;82.10;;;;;;4924131;29;20514;-82
2021/08/19 11:53:22;;;;;;;2.20;2.00;;;24.10;82.70;;;;;;4923609;29;20454;-85
2021/08/19 11:55:49;;;;;;;2.73;2.13;;;24.10;82.60;;;;;;4926773;29;20526;-84
2021/08/19 11:58:18;;;;;;;2.67;2.47;;;24.20;82.60;;;;;;4960369;28;20568;-85
2021/08/19 12:00:58;;;;;;;4.93;3.00;;;24.30;83.40;;;;;;4961789;28;20453;-83
2021/08/19 12:03:25;;;;;;;1.97;1.70;;;24.40;83.50;;;;;;4938138;29;20442;-83
2021/08/19 12:06:02;;;;;;;2.40;1.77;;;24.50;82.40;;;;;;4941249;29;20590;-83
2021/08/19 12:08:29;;;;;;;5.73;1.70;;;24.70;82.60;;;;;;4938570;29;20453;-83
2021/08/19 12:10:58;;;;;;;1.80;1.50;;;24.90;83.90;;;;;;4938784;29;20464;-84
2021/08/19 12:13:25;;;;;;;1.70;1.60;;;25.20;83.20;;;;;;4938931;29;20510;-83
2021/08/19 12:15:52;;;;;;;1.80;1.70;;;25.50;82.30;;;;;;4940782;29;20502;-83
2021/08/19 12:18:22;;;;;;;2.57;1.67;;;25.90;81.40;;;;;;4956022;29;20480;-83
2021/08/19 12:20:49;;;;;;;2.70;1.97;;;26.30;79.50;;;;;;4952699;29;21022;-84
2021/08/19 12:23:20;;;;;;;2.97;1.70;;;26.50;79.20;;;;;;4956801;29;20465;-85
2021/08/19 12:25:48;;;;;;;6.63;2.10;;;26.90;78.00;;;;;;4957037;29;20471;-83
2021/08/19 12:28:16;;;;;;;2.60;1.90;;;27.40;75.80;;;;;;4950432;29;20446;-84
2021/08/19 12:30:59;;;;;;;3.67;2.47;;;27.30;75.20;;;;;;4949924;29;20463;-84
2021/08/19 12:33:31;;;;;;;2.00;1.80;;;27.70;74.50;;;;;;4939075;29;20570;-84
2021/08/19 12:36:18;;;;;;;3.10;1.80;;;27.70;73.60;;;;;;4925989;29;20483;-84
2021/08/19 12:38:48;;;;;;;1.80;1.70;;;27.80;73.70;;;;;;4921842;29;20459;-84
2021/08/19 12:41:16;;;;;;;2.30;2.00;;;27.60;74.80;;;;;;4923355;29;20463;-83
2021/08/19 12:43:44;;;;;;;3.03;1.87;;;27.40;75.50;;;;;;4923554;29;20464;-83
2021/08/19 12:46:12;;;;;;;1.83;1.73;;;27.30;75.00;;;;;;4921225;29;20482;-84
2021/08/19 12:48:39;;;;;;;1.90;1.70;;;27.20;76.00;;;;;;4920445;29;20465;-83
2021/08/19 12:51:26;;;;;;;4.97;1.90;;;27.20;75.60;;;;;;4926320;29;20830;-84
2021/08/19 12:54:05;;;;;;;1.87;1.77;;;27.30;74.90;;;;;;4925143;29;20628;-83
2021/08/19 12:56:32;;;;;;;4.33;1.70;;;27.50;74.80;;;;;;4924513;29;20549;-83
2021/08/19 12:58:59;;;;;;;3.10;2.00;;;27.40;75.30;;;;;;4923316;29;20461;-83
2021/08/19 13:01:26;;;;;;;3.50;2.30;;;27.20;75.20;;;;;;4940414;29;20462;-83
2021/08/19 13:03:53;;;;;;;1.83;1.60;;;27.10;75.40;;;;;;4942370;29;20788;-83
2021/08/19 13:06:20;;;;;;;2.10;1.90;;;27.00;75.70;;;;;;4942596;29;20467;-83
2021/08/19 13:08:47;;;;;;;1.80;1.70;;;27.10;75.00;;;;;;4942246;29;20447;-83
2021/08/19 13:11:16;;;;;;;2.50;1.67;;;27.40;74.60;;;;;;4943405;29;20459;-83
2021/08/19 13:13:43;;;;;;;1.37;1.27;;;27.60;73.30;;;;;;4942047;29;20446;-83
2021/08/19 13:16:10;;;;;;;2.63;2.43;;;27.40;72.90;;;;;;4947482;29;20497;-83
2021/08/19 13:18:36;;;;;;;2.53;2.33;;;27.30;74.90;;;;;;4946645;29;20821;-84
2021/08/19 13:21:04;;;;;;;2.20;1.90;;;27.10;74.10;;;;;;4941913;29;20458;-84
2021/08/19 13:23:31;;;;;;;2.80;2.00;;;27.00;74.90;;;;;;4941079;29;20877;-83
2021/08/19 13:25:57;;;;;;;2.20;1.80;;;26.70;75.70;;;;;;4941321;29;20571;-84
2021/08/19 13:28:26;;;;;;;1.60;1.50;;;26.50;76.80;;;;;;4932425;29;20458;-84
2021/08/19 13:30:52;;;;;;;2.00;1.77;;;26.40;77.70;;;;;;4923167;29;20479;-83
2021/08/19 13:33:19;;;;;;;2.03;1.83;;;26.20;78.00;;;;;;4922463;29;20832;-83
2021/08/19 13:35:46;;;;;;;2.50;2.30;;;26.10;77.70;;;;;;4924643;29;20486;-83
2021/08/19 13:38:12;;;;;;;2.00;1.80;;;26.20;77.90;;;;;;4924830;29;20475;-83
2021/08/19 13:40:39;;;;;;;2.20;1.83;;;26.10;77.60;;;;;;4931455;29;20453;-82
2021/08/19 13:43:06;;;;;;;1.90;1.80;;;26.20;78.50;;;;;;4934651;29;20511;-83
2021/08/19 13:45:34;;;;;;;3.50;3.20;;;26.10;78.50;;;;;;4931589;29;21022;-84
2021/08/19 13:48:02;;;;;;;3.00;2.67;;;26.00;78.80;;;;;;4923430;29;20451;-83
2021/08/19 13:50:29;;;;;;;2.03;1.90;;;25.90;80.20;;;;;;4932026;29;20454;-83
2021/08/19 13:52:56;;;;;;;2.50;2.30;;;25.80;79.40;;;;;;4932005;29;20462;-82
2021/08/19 13:55:24;;;;;;;2.63;1.70;;;25.70;81.20;;;;;;4931956;29;20491;-82
2021/08/19 13:57:51;;;;;;;2.30;2.10;;;25.60;81.00;;;;;;4932827;29;20458;-83
2021/08/19 14:00:18;;;;;;;2.30;2.10;;;25.40;80.30;;;;;;4929117;29;20560;-83
2021/08/19 14:02:48;;;;;;;1.70;1.60;;;25.30;80.50;;;;;;4930711;29;20441;-83
2021/08/19 14:05:15;;;;;;;2.00;1.90;;;25.20;81.00;;;;;;4941329;29;20458;-83
2021/08/19 14:07:42;;;;;;;2.90;2.37;;;25.20;82.10;;;;;;4937205;29;20738;-82
2021/08/19 14:10:10;;;;;;;2.60;2.10;;;25.10;82.60;;;;;;4934193;29;20454;-83
2021/08/19 14:12:36;;;;;;;2.20;2.00;;;25.00;83.00;;;;;;4928383;29;20460;-83
2021/08/19 14:15:04;;;;;;;4.50;2.63;;;24.90;83.90;;;;;;4923730;29;20497;-83
2021/08/19 14:17:31;;;;;;;5.67;2.80;;;24.80;84.20;;;;;;4931431;28;20455;-82
2021/08/19 14:19:59;;;;;;;2.43;1.87;;;24.70;83.80;;;;;;4958207;28;20450;-83
2021/08/19 14:22:32;;;;;;;2.60;2.40;;;24.60;83.80;;;;;;4954628;28;20451;-83
2021/08/19 14:24:59;;;;;;;2.83;2.53;;;24.50;82.90;;;;;;4942633;29;20482;-83
2021/08/19 14:27:26;;;;;;;4.47;2.40;;;24.50;83.70;;;;;;4933522;29;20437;-83
2021/08/19 14:29:53;;;;;;;2.80;2.60;;;24.50;84.00;;;;;;4935793;29;20451;-83
2021/08/19 14:32:20;;;;;;;2.80;2.53;;;24.30;84.20;;;;;;4923170;29;20450;-83
2021/08/19 14:34:46;;;;;;;2.80;2.60;;;24.30;84.50;;;;;;4922351;29;20473;-83
2021/08/19 14:37:15;;;;;;;3.07;2.50;;;24.30;85.10;;;;;;4921185;29;20863;-83
2021/08/19 14:39:41;;;;;;;2.97;2.77;;;24.20;85.70;;;;;;4922280;29;20498;-83
2021/08/19 14:42:08;;;;;;;2.83;2.63;;;24.20;85.50;;;;;;4921072;29;20983;-83
2021/08/19 14:44:35;;;;;;;4.30;2.60;;;24.20;85.60;;;;;;4926933;29;20461;-85
2021/08/19 14:47:02;;;;;;;3.40;2.93;;;24.10;85.90;;;;;;4937431;29;20457;-82
2021/08/19 14:49:30;;;;;;;2.77;2.57;;;24.10;86.50;;;;;;4927274;29;20925;-83
2021/08/19 14:51:57;;;;;;;2.47;2.27;;;24.10;87.00;;;;;;4936697;29;20453;-82
2021/08/19 14:54:25;;;;;;;3.43;3.13;;;24.20;86.80;;;;;;4931260;29;20451;-83
2021/08/19 14:56:51;;;;;;;3.23;2.67;;;24.30;86.60;;;;;;4923458;29;20501;-82
2021/08/19 14:59:19;;;;;;;3.53;2.60;;;24.30;85.90;;;;;;4920237;29;20956;-83
2021/08/19 15:01:46;;;;;;;2.60;1.80;;;24.40;85.10;;;;;;4921625;29;20978;-84
2021/08/19 15:04:13;;;;;;;2.60;2.00;;;24.50;85.00;;;;;;4926671;29;20446;-83
2021/08/19 15:06:40;;;;;;;4.17;2.63;;;24.60;85.10;;;;;;4921023;29;20485;-82
2021/08/19 15:09:08;;;;;;;2.47;2.07;;;24.70;84.20;;;;;;4923174;29;20739;-83
2021/08/19 15:11:38;;;;;;;3.30;2.33;;;24.60;82.80;;;;;;4920103;29;20557;-84
2021/08/19 15:14:06;;;;;;;3.80;3.10;;;24.50;83.70;;;;;;4919178;29;20442;-83
2021/08/19 15:16:33;;;;;;;3.50;2.57;;;24.40;85.30;;;;;;4920122;29;20862;-83
2021/08/19 15:19:00;;;;;;;3.63;2.77;;;24.30;84.70;;;;;;4918753;29;20446;-83
2021/08/19 15:21:28;;;;;;;3.00;2.80;;;24.20;85.30;;;;;;4926739;29;20954;-83
2021/08/19 15:23:55;;;;;;;2.43;2.23;;;24.10;85.60;;;;;;4942656;29;21025;-82
2021/08/19 15:26:23;;;;;;;2.90;2.50;;;24.10;85.60;;;;;;4940887;29;20474;-83
2021/08/19 15:28:53;;;;;;;3.63;3.13;;;23.90;86.20;;;;;;4930364;29;20455;-85
2021/08/19 15:31:21;;;;;;;3.00;2.70;;;23.90;87.10;;;;;;4938203;29;20461;-84
2021/08/19 15:33:48;;;;;;;3.20;2.87;;;23.70;87.70;;;;;;4938994;29;20459;-86
2021/08/19 15:43:23;;;;;;;3.70;3.40;;;23.50;88.30;;;;;;4926058;29;20465;-86
2021/08/19 15:46:13;;;;;;;3.53;2.37;;;23.40;88.40;;;;;;4919706;29;20470;-85
2021/08/19 15:51:34;;;;;;;3.00;2.70;;;23.40;88.80;;;;;;4949323;29;20457;-85
2021/08/19 15:54:17;;;;;;;5.50;5.00;;;23.40;89.10;;;;;;4958964;29;20484;-86
2021/08/19 15:57:09;;;;;;;;;;;;;;;;;;;;;
2021/08/19 16:47:02;;;;;;;2.73;2.50;;;24.30;84.30;;;;;;4953241;23;20499;-87
2021/08/19 16:49:30;;;;;;;7.23;4.83;;;24.10;84.70;;;;;;4958761;28;20459;-88
2021/08/19 16:51:57;;;;;;;5.07;3.83;;;24.10;85.60;;;;;;4958803;28;20449;-88
2021/08/19 16:54:24;;;;;;;6.03;4.83;;;24.00;85.90;;;;;;4959287;28;20437;-89
2021/08/19 16:56:50;;;;;;;4.10;3.20;;;24.00;87.10;;;;;;4941498;29;20505;-89
2021/08/19 16:59:17;;;;;;;6.23;5.13;;;23.90;86.90;;;;;;4938679;29;20453;-88
2021/08/19 17:01:44;;;;;;;6.67;4.77;;;23.80;86.90;;;;;;4939852;29;20453;-89
2021/08/19 17:04:12;;;;;;;6.13;5.63;;;23.80;88.10;;;;;;4940568;29;20468;-89
2021/08/19 17:06:39;;;;;;;5.17;4.77;;;23.70;87.70;;;;;;4940290;29;20473;-89
2021/08/19 17:09:06;;;;;;;3.70;3.00;;;23.70;87.40;;;;;;4939301;29;20459;-88
2021/08/19 17:11:33;;;;;;;2.70;2.00;;;23.70;87.70;;;;;;4940543;29;20461;-89
2021/08/19 17:14:00;;;;;;;2.30;2.10;;;23.60;87.40;;;;;;4956314;29;20460;-89
2021/08/19 17:16:26;;;;;;;2.47;2.23;;;23.50;88.10;;;;;;4959330;29;20499;-89
2021/08/19 17:18:53;;;;;;;2.43;2.20;;;23.50;87.30;;;;;;4949929;29;20465;-89
2021/08/19 17:21:22;;;;;;;2.60;1.90;;;23.40;87.10;;;;;;4957012;29;20469;-89
2021/08/19 17:23:49;;;;;;;3.20;1.90;;;23.40;87.70;;;;;;4964562;28;20464;-89
2021/08/19 17:26:16;;;;;;;2.77;1.93;;;23.40;87.80;;;;;;4974610;28;20482;-89
2021/08/19 17:28:42;;;;;;;2.20;2.00;;;23.30;87.80;;;;;;4979756;28;20439;-89
2021/08/19 17:31:09;;;;;;;3.60;2.20;;;23.30;88.20;;;;;;4976426;28;20508;-89
2021/08/19 17:33:36;;;;;;;2.60;2.40;;;23.30;88.50;;;;;;4965483;28;20444;-89
2021/08/19 17:36:03;;;;;;;2.00;1.80;;;23.20;88.60;;;;;;4961746;28;20489;-88
2021/08/19 17:38:32;;;;;;;1.80;1.60;;;23.20;88.20;;;;;;4961475;28;20966;-89
2021/08/19 17:41:00;;;;;;;3.50;2.70;;;23.20;88.90;;;;;;4960424;28;20456;-90
2021/08/19 17:43:27;;;;;;;1.90;1.60;;;23.10;88.70;;;;;;4958496;28;20456;-89
2021/08/19 17:45:54;;;;;;;4.23;3.07;;;23.00;89.10;;;;;;4958360;28;20491;-89
2021/08/19 17:48:21;;;;;;;6.57;4.47;;;23.00;89.60;;;;;;4961071;28;20487;-89
2021/08/19 17:50:48;;;;;;;3.43;2.20;;;22.90;89.70;;;;;;4965993;28;20448;-89
2021/08/19 17:53:15;;;;;;;2.27;2.07;;;22.90;90.00;;;;;;4958349;28;20795;-90
2021/08/19 17:55:43;;;;;;;2.00;1.80;;;22.80;89.80;;;;;;4958315;29;20889;-89
2021/08/19 17:58:10;;;;;;;2.03;1.87;;;22.80;89.80;;;;;;4958043;28;20491;-89
2021/08/19 18:00:38;;;;;;;1.83;1.60;;;22.70;90.00;;;;;;4958151;29;20455;-89
2021/08/19 18:03:05;;;;;;;3.27;2.87;;;22.70;90.20;;;;;;4957851;28;20455;-88
2021/08/19 18:05:33;;;;;;;2.33;2.13;;;22.60;90.20;;;;;;4965265;28;20443;-89
2021/08/19 18:08:00;;;;;;;3.80;2.17;;;22.60;90.50;;;;;;4970508;28;20446;-89
2021/08/19 18:10:27;;;;;;;3.33;2.47;;;22.50;91.00;;;;;;4959951;28;20487;-89
2021/08/19 18:12:55;;;;;;;2.07;1.87;;;22.50;91.60;;;;;;4965598;28;20863;-89
2021/08/19 18:15:22;;;;;;;2.57;2.10;;;22.40;92.00;;;;;;4945881;28;20481;-89
2021/08/19 18:17:49;;;;;;;3.30;2.50;;;22.30;92.40;;;;;;4937754;29;21025;-89
2021/08/19 18:20:16;;;;;;;4.00;2.50;;;22.20;92.60;;;;;;4937965;29;20462;-89
2021/08/19 18:22:45;;;;;;;2.20;1.93;;;22.20;92.80;;;;;;4940333;29;20459;-89
2021/08/19 18:25:14;;;;;;;4.50;2.60;;;22.20;93.00;;;;;;4952859;29;20475;-89
2021/08/19 18:27:42;;;;;;;2.20;2.00;;;22.20;93.10;;;;;;4946307;29;20444;-89
2021/08/19 18:30:12;;;;;;;2.60;2.20;;;22.10;93.20;;;;;;4938666;29;20457;-89
2021/08/19 18:32:40;;;;;;;3.67;2.80;;;22.10;93.30;;;;;;4938875;29;20464;-89